Flight Track Log - Related Links

Times and Time Zones

All times are in EDT time to prevent confusion due to time zone crossing. See the UAL407 flight status page for this flight to view local times or setup timezone preferences in your user account.

Time Position Orientation Groundspeed Altitude Reporting Facility
EDT Latitude Longitude Course Direction KTS MPH feet Rate Location/Type
Mon 10:02:00 PM 42.0000 -87.9333 270° West 166 191 1,400  Level Chicago TRACON
Mon 10:02:54 PM 42.0333 -87.9667 323° Northwest 196 226 2,900 2,050 Climbing Chicago TRACON
Mon 10:04:00 PM 41.9668 -88.5630 270° West  Level FlightAware Approximate
Mon 10:04:41 PM 42.1358 -88.0694 323° Northwest 275 316 6,900  Level Chicago Center
Mon 10:05:00 PM 41.9667 -88.7288 270° West  Level FlightAware Approximate
Mon 10:05:42 PM 42.1419 -88.1761 274° West 288 331 9,900  Level Chicago Center
Mon 10:06:00 PM 41.9668 -88.8945 270° West  Level FlightAware Approximate
Mon 10:06:43 PM 42.1383 -88.2889 268° West 297 342 11,800  Level Chicago Center
Mon 10:07:00 PM 41.9669 -89.0602 270° West  Level FlightAware Approximate
Mon 10:07:45 PM 42.1342 -88.4228 268° West 348 400 13,900  Level Chicago Center
Mon 10:08:46 PM 42.1319 -88.5553 269° West 356 410 16,100 2,361 Climbing Chicago Center
Mon 10:09:47 PM 42.1294 -88.7200 269° West 367 422 18,700 1,854 Climbing Chicago Center
Mon 10:10:49 PM 42.1264 -88.8383 268° West 370 426 19,900 1,415 Climbing Chicago Center
Mon 10:11:50 PM 42.1219 -89.0119 268° West 392 451 21,600 1,525 Climbing Chicago Center
Mon 10:12:51 PM 42.1189 -89.1639 268° West 403 464 23,000 1,268 Climbing Chicago Center
Mon 10:13:53 PM 42.1164 -89.3203 269° West 412 474 24,200 1,220 Climbing Chicago Center
Mon 10:14:54 PM 42.1142 -89.4800 269° West 420 483 25,500 1,180 Climbing Chicago Center
Mon 10:15:55 PM 42.1144 -89.6450 270° West 437 503 26,600 1,024 Climbing Chicago Center
Mon 10:16:57 PM 42.1139 -89.8094 270° West 439 505 27,600 1,024 Climbing Chicago Center
Mon 10:17:58 PM 42.1156 -89.9933 271° West 447 514 28,700 1,082 Climbing Chicago Center
Mon 10:19:00 PM 42.0947 -90.1611 261° West  Level FlightAware Approximate
Mon 10:20:00 PM 42.1183 -90.3331 261° West 457 526 30,900  Level Chicago Center
Mon 10:21:01 PM 42.1203 -90.5036 271° West 459 528 31,900 976 Climbing Chicago Center
Mon 10:22:03 PM 42.1239 -90.6742 272° West 460 529 32,900 927 Climbing Chicago Center
Mon 10:23:04 PM 42.1442 -90.8422 279° West 458 527 33,800 541 Climbing Chicago Center
Mon 10:24:05 PM 42.1700 -91.0083 282° West 457 526 34,000 98 Climbing Chicago Center
Mon 10:25:06 PM 42.1936 -91.1778 281° West 460 529 34,000  Level Chicago Center
Mon 10:26:07 PM 42.2236 -91.3803 281° West 461 531 34,000  Level Chicago Center
Mon 10:27:09 PM 42.2475 -91.5489 281° West 461 531 34,000  Level Chicago Center
Mon 10:28:10 PM 42.2719 -91.7175 281° West 459 528 34,000  Level Chicago Center
Mon 10:30:33 PM 42.3297 -92.1236 281° West 460 529 34,000  Level Minneapolis Center
Mon 10:31:14 PM 42.3436 -92.2244 281° West 460 529 34,000  Level Chicago Center
Mon 10:31:34 PM 42.3533 -92.2939 281° West 461 531 34,000  Level Minneapolis Center
Mon 10:32:35 PM 42.3761 -92.4625 280° West 461 531 34,000  Level Minneapolis Center
Mon 10:33:36 PM 42.3994 -92.6319 281° West 461 531 34,000  Level Minneapolis Center
Mon 10:34:37 PM 42.4217 -92.8019 280° West 462 532 34,000  Level Minneapolis Center
Mon 10:35:39 PM 42.4458 -92.9667 281° West 454 522 34,000  Level Minneapolis Center
Mon 10:36:40 PM 42.4658 -93.1331 279° West 453 521 34,000  Level Minneapolis Center
Mon 10:37:41 PM 42.4869 -93.3047 280° West 462 532 34,000  Level Minneapolis Center
Mon 10:38:42 PM 42.5136 -93.5053 280° West 457 526 34,000  Level Minneapolis Center
Mon 10:39:43 PM 42.5356 -93.6769 280° West 463 533 34,000  Level Minneapolis Center
Mon 10:40:44 PM 42.5558 -93.8486 279° West 465 535 34,000 49 Level Minneapolis Center
Mon 10:41:46 PM 42.5775 -94.0169 280° West 461 531 34,100  Climbing Minneapolis Center
Mon 10:42:47 PM 42.5986 -94.1858 280° West 460 529 34,000 -49 Descending Minneapolis Center
Mon 10:43:48 PM 42.6358 -94.3492 287° West 458 527 34,000  Level Minneapolis Center
Mon 10:44:49 PM 42.6986 -94.5000 300° West 461 531 34,000  Level Minneapolis Center
Mon 10:45:50 PM 42.7758 -94.6767 301° West 456 525 34,000  Level Minneapolis Center
Mon 10:46:51 PM 42.8400 -94.8267 300° West 458 527 34,000  Level Minneapolis Center
Mon 10:47:52 PM 42.9042 -94.9783 300° West 461 531 34,000  Level Minneapolis Center
Mon 10:48:53 PM 42.9686 -95.1281 301° West 459 528 34,000  Level Minneapolis Center
Mon 10:49:55 PM 43.0333 -95.2794 300° West 460 529 34,000  Level Minneapolis Center
Mon 10:50:56 PM 43.0956 -95.4300 300° West 458 527 34,000  Level Minneapolis Center
Mon 10:51:57 PM 43.1586 -95.5789 300° West 454 522 34,000  Level Minneapolis Center
Mon 10:52:58 PM 43.2206 -95.7256 300° West 449 517 34,000  Level Minneapolis Center
Mon 10:53:59 PM 43.2828 -95.8753 300° West 450 518 34,000  Level Minneapolis Center
Mon 10:55:01 PM 43.3450 -96.0253 300° West 450 518 34,000  Level Minneapolis Center
Mon 10:56:02 PM 43.4067 -96.1778 299° West 454 522 34,000 98 Level Minneapolis Center
Mon 10:57:03 PM 43.4808 -96.3608 299° West 456 525 34,200 344 Climbing Minneapolis Center
Mon 10:58:04 PM 43.5414 -96.5147 299° West 455 524 34,700 787 Climbing Minneapolis Center
Mon 10:59:05 PM 43.6031 -96.6658 299° West 453 521 35,800 629 Climbing Minneapolis Center
Mon 11:00:08 PM 43.6628 -96.8183 298° West 452 520 36,000 96 Climbing Minneapolis Center
Mon 11:01:10 PM 43.7117 -96.9772 293° West 450 518 36,000  Level Minneapolis Center
Mon 11:02:11 PM 43.7611 -97.1358 293° West 450 518 36,000  Level Minneapolis Center
Mon 11:03:12 PM 43.8106 -97.2947 293° West 450 518 36,000  Level Minneapolis Center
Mon 11:04:13 PM 43.8600 -97.4517 294° West 447 514 36,000  Level Minneapolis Center
Mon 11:05:15 PM 43.9089 -97.6108 293° West 448 516 36,000  Level Minneapolis Center
Mon 11:06:16 PM 43.9578 -97.7683 293° West 447 514 36,000  Level Minneapolis Center
Mon 11:07:17 PM 44.0161 -97.9594 293° West 448 516 36,000  Level Minneapolis Center
Mon 11:08:18 PM 44.0653 -98.1192 293° West 449 517 36,000  Level Minneapolis Center
Mon 11:09:20 PM 44.1139 -98.2792 293° West 450 518 36,000  Level Minneapolis Center
Mon 11:10:21 PM 44.1617 -98.4419 292° West 453 521 36,000  Level Minneapolis Center
Mon 11:11:22 PM 44.2100 -98.6047 293° West 455 524 36,000  Level Minneapolis Center
Mon 11:12:23 PM 44.2550 -98.7519 293° West 455 524 36,000  Level Minneapolis Center
Mon 11:13:24 PM 44.3119 -98.9472 292° West 453 521 36,000  Level Minneapolis Center
Mon 11:14:25 PM 44.3597 -99.1108 292° West 453 521 36,000  Level Minneapolis Center
Mon 11:15:27 PM 44.4075 -99.2739 292° West 453 521 36,000  Level Minneapolis Center
Mon 11:16:28 PM 44.4539 -99.4386 292° West 454 522 36,000  Level Minneapolis Center
Mon 11:17:29 PM 44.5000 -99.6036 291° West 453 521 36,000  Level Minneapolis Center
Mon 11:18:30 PM 44.5472 -99.7678 292° West 452 520 36,000  Level Minneapolis Center
Mon 11:19:31 PM 44.5939 -99.9331 292° West 453 521 36,000  Level Minneapolis Center
Mon 11:20:33 PM 44.6400 -100.1000 291° West 454 522 36,000  Level Minneapolis Center
Mon 11:21:34 PM 44.6875 -100.2683 292° West 457 526 36,000  Level Minneapolis Center
Mon 11:22:35 PM 44.7347 -100.4367 292° West 459 528 36,000  Level Minneapolis Center
Mon 11:23:36 PM 44.7797 -100.6039 291° West 457 526 36,000  Level Minneapolis Center
Mon 11:24:37 PM 44.8167 -100.7381 291° West 457 526 36,000  Level Minneapolis Center
Mon 11:25:38 PM 44.8717 -100.9417 291° West 460 529 36,000  Level Minneapolis Center
Mon 11:26:39 PM 44.9192 -101.1108 292° West 463 533 36,000  Level Minneapolis Center
Mon 11:27:52 PM 44.9650 -101.2792 291° West 460 529 36,000  Level Minneapolis Center
Mon 11:28:54 PM 45.0194 -101.4819 291° West 459 528 36,000  Level Minneapolis Center
Mon 11:29:55 PM 45.0728 -101.6861 290° West 461 531 36,000  Level Minneapolis Center
Mon 11:30:56 PM 45.1019 -101.8625 283° West 460 529 36,000  Level Minneapolis Center
Mon 11:31:57 PM 45.1250 -102.0442 280° West 466 536 36,000  Level Minneapolis Center
Mon 11:32:58 PM 45.1483 -102.2258 280° West 469 540 36,000  Level Minneapolis Center
Mon 11:33:59 PM 45.1725 -102.4069 281° West 469 540 36,000  Level Minneapolis Center
Mon 11:35:00 PM 45.1975 -102.5900 281° West 471 542 36,000  Level Minneapolis Center
Mon 11:36:01 PM 45.2200 -102.7722 280° West 471 542 36,000  Level Minneapolis Center
Mon 11:37:02 PM 45.2425 -102.9564 280° West 473 544 36,000  Level Minneapolis Center
Mon 11:38:02 PM 45.2667 -103.1389 281° West 472 543 36,000 -59 Level Minneapolis Center
Mon 11:38:43 PM 45.2819 -103.2767 279° West 474 545 35,900  Descending Salt Lake Center
Mon 11:39:45 PM 45.3044 -103.4603 280° West 473 544 36,000 49 Climbing Salt Lake Center
Mon 11:40:46 PM 45.3269 -103.6431 280° West 471 542 36,000 -49 Level Salt Lake Center
Mon 11:41:47 PM 45.3483 -103.8264 279° West 472 543 35,900 -49 Descending Salt Lake Center
Mon 11:42:48 PM 45.3689 -104.0081 279° West 468 539 35,900  Level Salt Lake Center
Mon 11:43:49 PM 45.3903 -104.1919 279° West 471 542 35,900 49 Level Salt Lake Center
Mon 11:44:50 PM 45.4111 -104.3769 279° West 474 545 36,000 49 Climbing Salt Lake Center
Mon 11:45:52 PM 45.4322 -104.5711 279° West 474 545 36,000  Level Salt Lake Center
Mon 11:46:53 PM 45.4569 -104.7772 280° West 473 544 36,000  Level Salt Lake Center
Mon 11:47:54 PM 45.4750 -104.9511 278° West 467 537 36,000  Level Salt Lake Center
Mon 11:48:55 PM 45.4942 -105.1297 279° West 474 545 36,000  Level Salt Lake Center
Mon 11:49:56 PM 45.5144 -105.3333 278° West 467 537 36,000  Level Salt Lake Center
Mon 11:50:57 PM 45.5339 -105.5086 279° West 468 539 36,000  Level Salt Lake Center
Mon 11:51:58 PM 45.5547 -105.7144 278° West 471 542 36,000  Level Salt Lake Center
Mon 11:52:59 PM 45.5714 -105.8906 278° West 470 541 36,000  Level Salt Lake Center
Mon 11:54:01 PM 45.5892 -106.0689 278° West 474 545 36,000  Level Salt Lake Center
Mon 11:55:02 PM 45.6089 -106.2761 278° West 473 544 36,000  Level Salt Lake Center
Mon 11:56:03 PM 45.6261 -106.4586 278° West 481 554 36,000  Level Salt Lake Center
Mon 11:57:04 PM 45.6406 -106.6364 277° West 476 548 36,000  Level Salt Lake Center
Mon 11:58:05 PM 45.6603 -106.8483 278° West 478 550 36,000  Level Salt Lake Center
Mon 11:59:06 PM 45.6781 -107.0339 278° West 487 560 36,000  Level Salt Lake Center
Tue 12:00:07 AM 45.6975 -107.2525 277° West 494 568 36,000  Level Salt Lake Center
Tue 12:01:08 AM 45.7136 -107.4358 277° West 489 563 36,000  Level Salt Lake Center
Tue 12:02:10 AM 45.7294 -107.6208 277° West 490 564 36,000  Level Salt Lake Center
Tue 12:03:11 AM 45.7478 -107.8375 277° West 490 564 36,000  Level Salt Lake Center
Tue 12:04:12 AM 45.7617 -108.0219 276° West 489 563 36,000  Level Salt Lake Center
Tue 12:05:13 AM 45.7789 -108.2400 277° West 496 571 36,000  Level Salt Lake Center
Tue 12:06:14 AM 45.7931 -108.4253 276° West 492 566 36,000  Level Salt Lake Center
Tue 12:07:15 AM 45.8086 -108.6172 277° West 504 580 36,000  Level Salt Lake Center
Tue 12:08:16 AM 45.8144 -108.8356 272° West 494 568 36,000  Level Salt Lake Center
Tue 12:09:17 AM 45.8200 -109.0214 273° West 490 564 36,000  Level Salt Lake Center
Tue 12:10:18 AM 45.8258 -109.2428 272° West 497 572 36,000  Level Salt Lake Center
Tue 12:11:19 AM 45.8306 -109.4314 272° West 498 573 36,000  Level Salt Lake Center
Tue 12:12:20 AM 45.8350 -109.6225 272° West 500 575 36,000  Level Salt Lake Center
Tue 12:13:21 AM 45.8397 -109.8428 272° West 497 572 36,000  Level Salt Lake Center
Tue 12:14:23 AM 45.8417 -110.0331 271° West 499 574 36,000  Level Salt Lake Center
Tue 12:15:24 AM 45.8464 -110.2225 272° West 498 573 36,000  Level Salt Lake Center
Tue 12:16:25 AM 45.8492 -110.4442 271° West 498 573 36,000  Level Salt Lake Center
Tue 12:17:26 AM 45.8525 -110.6258 272° West 489 563 36,000  Level Salt Lake Center
Tue 12:18:27 AM 45.8550 -110.8222 271° West 492 566 36,000  Level Salt Lake Center
Tue 12:19:28 AM 45.8567 -111.0169 271° West 495 570 36,000  Level Salt Lake Center
Tue 12:20:30 AM 45.8594 -111.2458 271° West 503 579 36,000  Level Salt Lake Center
Tue 12:21:31 AM 45.8594 -111.4403 270° West 496 571 36,000  Level Salt Lake Center
Tue 12:22:32 AM 45.8597 -111.6342 270° West 490 564 36,000  Level Salt Lake Center
Tue 12:23:33 AM 45.8603 -111.8300 270° West 493 567 36,000  Level Salt Lake Center
Tue 12:24:34 AM 45.8608 -112.0244 270° West 489 563 36,000  Level Salt Lake Center
Tue 12:25:36 AM 45.8606 -112.2208 270° West 492 566 36,000  Level Salt Lake Center
Tue 12:26:37 AM 45.8617 -112.4158 271° West 490 564 36,000  Level Salt Lake Center
Tue 12:27:38 AM 45.8619 -112.6111 270° West 490 564 36,000  Level Salt Lake Center
Tue 12:28:39 AM 45.8622 -112.8439 270° West 488 562 36,000  Level Salt Lake Center
Tue 12:29:40 AM 45.8608 -113.0386 269° West 488 562 36,000  Level Salt Lake Center
Tue 12:30:42 AM 45.8611 -113.2328 270° West 489 563 36,000  Level Salt Lake Center
Tue 12:31:43 AM 45.8600 -113.4267 270° West 488 562 36,000  Level Salt Lake Center
Tue 12:32:44 AM 45.8586 -113.6211 269° West 488 562 36,000  Level Salt Lake Center
Tue 12:33:45 AM 45.8592 -113.8117 270° West 490 564 36,000  Level Salt Lake Center
Tue 12:34:46 AM 45.8567 -114.0058 269° West 489 563 36,000  Level Salt Lake Center
Tue 12:35:48 AM 45.8544 -114.1989 269° West 487 560 36,000  Level Salt Lake Center
Tue 12:36:49 AM 45.8517 -114.3975 269° West 486 559 36,000  Level Salt Lake Center
Tue 12:37:50 AM 45.8497 -114.6139 269° West 487 560 36,000  Level Salt Lake Center
Tue 12:38:51 AM 45.8461 -114.7978 268° West 484 557 36,000  Level Salt Lake Center
Tue 12:39:52 AM 45.8419 -115.0119 268° West 483 556 36,000  Level Salt Lake Center
Tue 12:40:53 AM 45.8389 -115.1994 269° West 489 563 36,000  Level Salt Lake Center
Tue 12:41:54 AM 45.8344 -115.3856 268° West 489 563 36,000  Level Salt Lake Center
Tue 12:42:55 AM 45.8294 -115.6033 268° West 491 565 36,000  Level Salt Lake Center
Tue 12:43:56 AM 45.8242 -115.7894 268° West 492 566 36,000  Level Salt Lake Center
Tue 12:44:57 AM 45.8186 -116.0075 268° West 491 565 36,000  Level Salt Lake Center
Tue 12:45:58 AM 45.8128 -116.1936 267° West 490 564 36,000  Level Salt Lake Center
Tue 12:46:59 AM 45.8067 -116.3775 267° West 488 562 36,000  Level Salt Lake Center
Tue 12:48:00 AM 45.8006 -116.5942 268° West 489 563 36,000  Level Salt Lake Center
Tue 12:49:01 AM 45.7936 -116.7786 267° West 487 560 36,000  Level Salt Lake Center
Tue 12:50:02 AM 45.7869 -116.9650 267° West 489 563 36,000  Level Salt Lake Center
Tue 12:51:03 AM 45.7792 -117.1831 267° West 492 566 36,000  Level Salt Lake Center
Tue 12:52:04 AM 45.7719 -117.3700 267° West 492 566 36,000 -344 Level Salt Lake Center
Tue 12:53:05 AM 45.7633 -117.5581 266° West 494 568 35,300 -885 Descending Salt Lake Center
Tue 12:54:06 AM 45.7550 -117.7742 267° West 489 563 34,200 -639 Descending Salt Lake Center
Tue 12:55:07 AM 45.7469 -117.9514 266° West 490 564 34,000 -99 Descending Salt Lake Center
Tue 12:56:07 AM 45.7383 -118.1475 266° West 495 570 34,000 -47 Level Salt Lake Center
Tue 12:57:16 AM 45.7250 -118.3919 266° West 492 566 33,900  Descending Seattle Center
Tue 12:58:17 AM 45.7167 -118.5733 266° West 491 565 34,000 48 Climbing Seattle Center
Tue 12:59:20 AM 45.7064 -118.7667 266° West 490 564 34,000  Level Seattle Center
Tue 01:00:20 AM 45.6958 -118.9611 266° West 493 567 34,000  Level Seattle Center
Tue 01:01:21 AM 45.6739 -119.1536 261° West 495 570 34,000  Level Seattle Center
Tue 01:02:21 AM 45.6481 -119.3833 261° West 493 567 34,000  Level Seattle Center
Tue 01:03:22 AM 45.6261 -119.5758 261° West 493 567 34,000  Level Seattle Center
Tue 01:04:23 AM 45.6047 -119.7686 261° West 495 570 34,000  Level Seattle Center
Tue 01:05:23 AM 45.5817 -119.9603 260° West 495 570 34,000 -347 Level Seattle Center
Tue 01:06:24 AM 45.5589 -120.1517 260° West 495 570 33,300 -1,587 Descending Seattle Center
Tue 01:07:24 AM 45.5358 -120.3447 260° West 497 572 30,800 -2,430 Descending Seattle Center
Tue 01:08:25 AM 45.5119 -120.5400 260° West 502 578 28,400 -2,508 Descending Seattle Center
Tue 01:09:26 AM 45.4883 -120.7294 260° West 489 563 25,700 -2,479 Descending Seattle Center
Tue 01:10:26 AM 45.4836 -120.9194 268° West 478 550 23,400 -2,380 Descending Seattle Center
Tue 01:11:27 AM 45.4794 -121.0978 268° West 453 521 20,900 -2,529 Descending Seattle Center
Tue 01:12:27 AM 45.4753 -121.2672 268° West 432 497 18,300 -2,651 Descending Seattle Center
Tue 01:12:53 AM 45.4772 -121.3553 272° West 402 463 17,100 -2,459 Descending Seattle Center
Tue 01:13:28 AM 45.4733 -121.4214 265° West 392 451 15,800 -2,000 Descending Seattle Center
Tue 01:13:59 AM 45.4728 -121.5181 270° West 337 388 14,900 -1,475 Descending Seattle Center
Tue 01:14:29 AM 45.4711 -121.5542 266° West 340 391 14,300 -1,967 Descending Seattle Center
Tue 01:15:00 AM 45.4833 -121.6403 281° West 307 353 12,900 -1,900 Descending Seattle Center
Tue 01:15:29 AM 45.4853 -121.6767 274° West 315 362 12,400 -1,475 Descending Seattle Center
Tue 01:16:01 AM 45.4964 -121.7644 280° West 312 359 11,400 -1,574 Descending Seattle Center
Tue 01:16:30 AM 45.4986 -121.7969 276° West 308 354 10,800 -2,200 Descending Seattle Center
Tue 01:17:01 AM 45.5011 -121.8800 272° West 295 339 9,200 -2,500 Descending Seattle Center
Tue 01:17:30 AM 45.4994 -121.9372 268° West 294 338 8,300 -1,770 Descending Seattle Center
Tue 01:18:02 AM 45.5025 -121.9906 275° West 279 321 7,400 -1,180 Descending Seattle Center
Tue 01:18:31 AM 45.5019 -122.0231 269° West 269 310 7,100 -1,100 Descending Seattle Center
Tue 01:19:02 AM 45.5053 -122.0881 274° West 231 266 6,300 -1,300 Descending Seattle Center
Tue 01:19:31 AM 45.5081 -122.1200 277° West 254 292 5,800 -1,315 Descending Seattle Center
Tue 01:20:15 AM 45.5072 -122.1922 269° West 206 237 4,700 -1,377 Descending Seattle Center
Tue 01:20:32 AM 45.5089 -122.2161 276° West 215 247 4,400 -623 Descending Seattle Center
Tue 01:21:32 AM 45.5106 -122.2939 272° West 201 231 3,900 -545 Descending Seattle Center
Tue 01:22:22 AM 45.5106 -122.3575 270° West 197 227 3,400 -800 Descending Seattle Center
Tue 01:23:17 AM 45.5261 -122.4222 289° West 181 208 2,500 -1,014 Descending Seattle Center
Tue 01:23:33 AM 45.5331 -122.4342 310° West 186 214 2,200 -985 Descending Seattle Center
Tue 01:24:24 AM 45.5475 -122.4750 297° West 137 158 1,400 -941 Descending Seattle Center

Login

Don't have an account? Register now (free) for customized features, flight alerts, and more!